Flight Track Log - Related Links

Times and Time Zones

All times are in EDT time to prevent confusion due to time zone crossing. See the N536CA flight status page for this flight to view local times or setup timezone preferences in your user account.

Time Position Orientation Groundspeed Altitude Reporting Facility
EDT Latitude Longitude Course Direction KTS MPH feet Rate Location/Type
Tue 05:32:06 PM 29.3083 -82.1639 181° South 98 113 3,600  Level Jacksonville Center
Tue 05:33:07 PM 29.2811 -82.1642 181° South 95 109 3,500 50 Descending Jacksonville Center
Tue 05:34:07 PM 29.2561 -82.1619 176° South 92 106 3,700 50 Climbing Jacksonville Center
Tue 05:35:08 PM 29.2289 -82.1525 163° South 95 109 3,600 -98 Descending Jacksonville Center
Tue 05:36:09 PM 29.2017 -82.1481 172° South 98 113 3,500  Descending Jacksonville Center
Tue 05:37:10 PM 29.1744 -82.1433 171° South 95 109 3,600 47 Climbing Jacksonville Center
Tue 05:38:17 PM 29.1475 -82.1364 167° South 94 108 3,600  Level Jacksonville Center
Tue 05:39:18 PM 29.1222 -82.1367 181° South 94 108 3,600  Level Jacksonville Center
Tue 05:40:13 PM 29.0953 -82.1344 176° South 97 112 3,600  Level Jacksonville Center
Tue 05:41:20 PM 29.0639 -82.1325 177° South 97 112 3,600  Level Jacksonville Center
Tue 05:42:21 PM 29.0389 -82.1325 180° South 89 102 3,600 -50 Level Jacksonville Center
Tue 05:43:21 PM 29.0139 -82.1303 176° South 93 107 3,500 -50 Descending Jacksonville Center
Tue 05:44:22 PM 28.9886 -82.1258 171° South 95 109 3,500 52 Level Jacksonville Center
Tue 05:45:17 PM 28.9656 -82.1189 165° South 93 107 3,600 31 Climbing Jacksonville Center
Tue 05:47:34 PM 28.9000 -82.1000 166° South 93 107 3,600 -59 Level Orlando TRACON
Tue 05:48:40 PM 28.8833 -82.1000 180° South 96 110 3,400  Descending Orlando TRACON
Tue 05:49:40 PM 28.8500 -82.0833 156° South 90 104 3,600 100 Climbing Orlando TRACON
Tue 05:50:40 PM 28.8333 -82.0667 139° Southeast 92 106 3,600 -52 Level Orlando TRACON
Tue 05:51:35 PM 28.8167 -82.0500 139° Southeast 94 108 3,500 -52 Descending Orlando TRACON
Tue 05:52:35 PM 28.7833 -82.0333 156° South 95 109 3,500 50 Level Orlando TRACON
Tue 05:53:35 PM 28.7667 -82.0333 180° South 94 108 3,600  Climbing Orlando TRACON
Tue 05:54:35 PM 28.7500 -82.0167 139° Southeast 96 110 3,500 -48 Descending Orlando TRACON
Tue 05:55:41 PM 28.7167 -82.0000 156° South 96 110 3,500  Level Orlando TRACON
Tue 05:56:41 PM 28.6833 -82.0000 180° South 98 113 3,500 53 Level Orlando TRACON
Tue 05:57:35 PM 28.6667 -82.0000 180° South 97 112 3,600 52 Climbing Orlando TRACON
Tue 05:58:36 PM 28.6333 -81.9833 156° South 98 113 3,600 -48 Level Orlando TRACON
Tue 05:59:41 PM 28.6167 -81.9667 139° Southeast 98 113 3,500  Descending Orlando TRACON
Tue 06:00:41 PM 28.5833 -81.9667 180° South 96 110 3,600  Climbing Orlando TRACON
Tue 06:01:36 PM 28.5667 -81.9667 180° South 100 115 3,500 -52 Descending Orlando TRACON
Tue 06:02:36 PM 28.5333 -81.9500 156° South 96 110 3,500  Level Orlando TRACON
Tue 06:03:36 PM 28.5167 -81.9333 139° Southeast 92 106 3,500  Level Orlando TRACON
Tue 06:04:42 PM 28.4833 -81.9167 156° South 96 110 3,500  Level Orlando TRACON
Tue 06:05:42 PM 28.4667 -81.9167 180° South 93 107 3,500  Level Orlando TRACON
Tue 06:06:37 PM 28.4333 -81.9000 156° South 90 104 3,500  Level Orlando TRACON
Tue 06:07:43 PM 28.4167 -81.8833 139° Southeast 100 115 3,500  Level Orlando TRACON
Tue 06:08:43 PM 28.3833 -81.8833 180° South 93 107 3,500  Level Orlando TRACON
Tue 06:09:43 PM 28.3667 -81.8667 139° Southeast 97 112 3,500 50 Level Orlando TRACON
Tue 06:10:43 PM 28.3333 -81.8500 156° South 93 107 3,600 -95 Climbing Orlando TRACON
Tue 06:11:49 PM 28.3167 -81.8500 180° South 100 115 3,300 -250 Descending Orlando TRACON
Tue 06:12:43 PM 28.2833 -81.8333 156° South 97 112 3,100 -158 Descending Orlando TRACON
Tue 06:13:43 PM 28.2667 -81.8167 139° Southeast 96 110 3,000 -150 Descending Orlando TRACON
Tue 06:14:43 PM 28.2500 -81.8000 139° Southeast 88 101 2,800 -200 Descending Orlando TRACON
Tue 06:15:43 PM 28.2333 -81.7667 120° Southeast 88 101 2,600 -180 Descending Orlando TRACON
Tue 06:16:56 PM 28.2333 -81.7333 90° East 88 101 2,400 -94 Descending Orlando TRACON
Tue 06:17:50 PM 28.2167 -81.7333 180° South 103 119 2,400 -53 Level Orlando TRACON
Tue 06:18:50 PM 28.2333 -81.7500 319° Northwest 111 128 2,300 -105 Descending Orlando TRACON
Tue 06:19:44 PM 28.2500 -81.7333 41° Northeast 92 106 2,200 -53 Descending Orlando TRACON
Tue 06:20:44 PM 28.2500 -81.7167 90° East 85 98 2,200  Level Orlando TRACON
Tue 06:21:44 PM 28.2333 -81.6833 120° Southeast 90 104 2,200 -150 Level Orlando TRACON
Tue 06:22:44 PM 28.2333 -81.6667 90° East 88 101 1,900 -150 Descending Orlando TRACON
Tue 06:23:44 PM 28.2333 -81.6333 90° East 88 101 1,900 -149 Level Orlando TRACON
Tue 06:24:45 PM 28.2333 -81.6000 90° East 87 100 1,600 -248 Descending Orlando TRACON
Tue 06:25:45 PM 28.2333 -81.5833 90° East 87 100 1,400 -100 Descending Orlando TRACON
Tue 06:26:45 PM 28.2333 -81.5500 90° East 86 99 1,400 -105 Level Orlando TRACON
Tue 06:27:39 PM 28.2333 -81.5333 90° East 89 102 1,200 -222 Descending Orlando TRACON

Login

Don't have an account? Register now (free) for customized features, flight alerts, and more!